createdAt,value
2023-04-02T00:00:31.092Z,93701.00
2023-04-02T00:01:31.083Z,93701.00
2023-04-02T00:02:31.258Z,93701.00
2023-04-02T00:03:31.177Z,93703.00
2023-04-02T00:04:31.160Z,93703.00
2023-04-02T00:05:31.175Z,93705.00
2023-04-02T00:06:31.135Z,93705.00
2023-04-02T00:07:31.216Z,93701.00
2023-04-02T00:08:31.163Z,93703.00
2023-04-02T00:09:31.138Z,93705.00
2023-04-02T00:10:31.148Z,93703.00
2023-04-02T00:11:31.149Z,93703.00
2023-04-02T00:12:31.139Z,93703.00
2023-04-02T00:13:31.164Z,93705.00
2023-04-02T00:14:31.212Z,93703.00
2023-04-02T00:15:31.261Z,93699.00
2023-04-02T00:16:31.330Z,93699.00
2023-04-02T00:17:31.275Z,93697.00
2023-04-02T00:18:31.305Z,93697.00
2023-04-02T00:19:31.291Z,93696.00
2023-04-02T00:20:31.371Z,93696.00
2023-04-02T00:21:31.316Z,93697.00
2023-04-02T00:22:31.356Z,93697.00
2023-04-02T00:23:31.318Z,93697.00
2023-04-02T00:24:31.340Z,93699.00
2023-04-02T00:25:31.383Z,93697.00
2023-04-02T00:26:31.399Z,93697.00
2023-04-02T00:27:31.413Z,93697.00
2023-04-02T00:28:31.410Z,93696.00
2023-04-02T00:29:31.431Z,93697.00
2023-04-02T00:30:31.424Z,93699.00
2023-04-02T00:31:31.493Z,93701.00
2023-04-02T00:32:31.529Z,93701.00
2023-04-02T00:33:31.627Z,93701.00
2023-04-02T00:34:31.635Z,93699.00
2023-04-02T00:35:31.620Z,93701.00
2023-04-02T00:36:31.636Z,93699.00
2023-04-02T00:37:31.617Z,93701.00
2023-04-02T00:38:31.681Z,93701.00
2023-04-02T00:39:31.726Z,93701.00
2023-04-02T00:40:31.763Z,93705.00
2023-04-02T00:41:31.723Z,93703.00
2023-04-02T00:42:31.740Z,93705.00
2023-04-02T00:43:31.747Z,93703.00
2023-04-02T00:44:31.777Z,93705.00
2023-04-02T00:45:31.789Z,93703.00
2023-04-02T00:46:31.748Z,93705.00
2023-04-02T00:47:31.771Z,93707.00
2023-04-02T00:48:31.786Z,93707.00
2023-04-02T00:49:31.779Z,93705.00
2023-04-02T00:50:31.778Z,93707.00
2023-04-02T00:51:31.789Z,93709.00
2023-04-02T00:52:31.776Z,93709.00
2023-04-02T00:53:31.775Z,93709.00
2023-04-02T00:54:31.780Z,93711.00
2023-04-02T00:55:31.949Z,93711.00
2023-04-02T00:56:31.981Z,93711.00
2023-04-02T00:57:32.088Z,93713.00
2023-04-02T00:58:32.177Z,93713.00
2023-04-02T00:59:32.180Z,93713.00
2023-04-02T01:00:32.171Z,93713.00
2023-04-02T01:01:32.216Z,93711.00
2023-04-02T01:02:32.281Z,93711.00
2023-04-02T01:03:32.299Z,93709.00
2023-04-02T01:04:32.264Z,93709.00
2023-04-02T01:05:32.481Z,93709.00
2023-04-02T01:06:32.375Z,93709.00
2023-04-02T01:07:32.369Z,93707.00
2023-04-02T01:08:32.381Z,93707.00
2023-04-02T01:09:32.381Z,93709.00
2023-04-02T01:10:32.396Z,93707.00
2023-04-02T01:11:32.475Z,93709.00
2023-04-02T01:12:32.475Z,93711.00
2023-04-02T01:13:32.482Z,93715.00
2023-04-02T01:14:32.496Z,93715.00
2023-04-02T01:15:32.593Z,93717.00
2023-04-02T01:16:32.510Z,93717.00
2023-04-02T01:17:32.617Z,93715.00
2023-04-02T01:18:32.704Z,93717.00
2023-04-02T01:19:32.660Z,93715.00
2023-04-02T01:20:32.660Z,93717.00
2023-04-02T01:21:32.670Z,93715.00
2023-04-02T01:22:32.655Z,93715.00
2023-04-02T01:23:32.668Z,93715.00
2023-04-02T01:24:32.662Z,93713.00
2023-04-02T01:25:32.689Z,93713.00
2023-04-02T01:26:32.659Z,93715.00
2023-04-02T01:27:32.653Z,93713.00
2023-04-02T01:28:32.655Z,93715.00
2023-04-02T01:29:32.752Z,93711.00
2023-04-02T01:30:32.754Z,93713.00
2023-04-02T01:31:32.830Z,93713.00
2023-04-02T01:32:32.760Z,93711.00
2023-04-02T01:33:32.760Z,93713.00
2023-04-02T01:34:32.757Z,93711.00
2023-04-02T01:35:33.109Z,93713.00
2023-04-02T01:36:32.862Z,93715.00
2023-04-02T01:37:32.851Z,93717.00
2023-04-02T01:38:32.853Z,93719.00
2023-04-02T01:39:32.859Z,93721.00
2023-04-02T01:40:32.876Z,93725.00
2023-04-02T01:41:32.863Z,93729.00
2023-04-02T01:42:32.867Z,93731.00
2023-04-02T01:43:32.891Z,93731.00
2023-04-02T01:44:32.870Z,93733.00
2023-04-02T01:45:33.096Z,93735.00
2023-04-02T01:46:33.004Z,93733.00
2023-04-02T01:47:33.042Z,93735.00
2023-04-02T01:48:32.962Z,93735.00
2023-04-02T01:49:32.981Z,93735.00
2023-04-02T01:50:32.967Z,93737.00
2023-04-02T01:51:33.063Z,93737.00
2023-04-02T01:52:33.072Z,93739.00
2023-04-02T01:53:33.070Z,93735.00
2023-04-02T01:54:33.084Z,93743.00
2023-04-02T01:55:33.346Z,93743.00
2023-04-02T01:56:33.061Z,93743.00
2023-04-02T01:57:33.198Z,93741.00
2023-04-02T01:58:33.058Z,93747.00
2023-04-02T01:59:33.065Z,93747.00
2023-04-02T02:00:33.087Z,93747.00
2023-04-02T02:01:33.089Z,93749.00
2023-04-02T02:02:33.244Z,93745.00
2023-04-02T02:03:33.115Z,93754.00
2023-04-02T02:04:33.133Z,93752.00
2023-04-02T02:05:33.413Z,93754.00
2023-04-02T02:06:33.334Z,93752.00
2023-04-02T02:07:33.337Z,93756.00
2023-04-02T02:08:33.322Z,93756.00
2023-04-02T02:09:33.350Z,93758.00
2023-04-02T02:10:33.340Z,93758.00
2023-04-02T02:11:33.359Z,93758.00
2023-04-02T02:12:33.363Z,93760.00
2023-04-02T02:13:33.371Z,93760.00
2023-04-02T02:14:33.378Z,93762.00
2023-04-02T02:15:33.774Z,93760.00
2023-04-02T02:16:33.437Z,93760.00
2023-04-02T02:17:33.407Z,93762.00
2023-04-02T02:18:33.407Z,93762.00
2023-04-02T02:19:33.394Z,93762.00
2023-04-02T02:20:33.437Z,93764.00
2023-04-02T02:21:33.525Z,93764.00
2023-04-02T02:22:33.521Z,93762.00
2023-04-02T02:23:33.525Z,93762.00
2023-04-02T02:24:33.527Z,93760.00
2023-04-02T02:25:33.802Z,93762.00
2023-04-02T02:26:33.552Z,93764.00
2023-04-02T02:27:33.568Z,93764.00
2023-04-02T02:28:33.549Z,93766.00
2023-04-02T02:29:33.567Z,93766.00
2023-04-02T02:30:33.586Z,93768.00
2023-04-02T02:31:33.691Z,93768.00
2023-04-02T02:32:33.629Z,93764.00
2023-04-02T02:33:33.595Z,93768.00
2023-04-02T02:34:33.587Z,93768.00
2023-04-02T02:35:34.159Z,93768.00
2023-04-02T02:36:33.707Z,93770.00
2023-04-02T02:37:33.756Z,93776.00
2023-04-02T02:38:33.723Z,93770.00
2023-04-02T02:39:33.729Z,93772.00
2023-04-02T02:40:33.762Z,93772.00
2023-04-02T02:41:33.793Z,93774.00
2023-04-02T02:42:33.796Z,93772.00
2023-04-02T02:43:33.811Z,93778.00
2023-04-02T02:44:33.786Z,93776.00
2023-04-02T02:45:34.136Z,93776.00
2023-04-02T02:46:33.813Z,93778.00
2023-04-02T02:47:33.851Z,93774.00
2023-04-02T02:48:33.808Z,93778.00
2023-04-02T02:49:33.834Z,93778.00
2023-04-02T02:50:33.856Z,93776.00
2023-04-02T02:51:33.928Z,93778.00
2023-04-02T02:52:33.917Z,93776.00
2023-04-02T02:53:33.920Z,93776.00
2023-04-02T02:54:33.943Z,93772.00
2023-04-02T02:55:34.227Z,93772.00
2023-04-02T02:56:33.967Z,93772.00
2023-04-02T02:57:34.120Z,93772.00
2023-04-02T02:58:33.947Z,93772.00
2023-04-02T02:59:33.969Z,93772.00
2023-04-02T03:00:34.046Z,93770.00
2023-04-02T03:01:34.073Z,93772.00
2023-04-02T03:02:34.156Z,93770.00
2023-04-02T03:03:34.391Z,93774.00
2023-04-02T03:04:34.044Z,93774.00
2023-04-02T03:05:34.326Z,93776.00
2023-04-02T03:06:34.046Z,93782.00
2023-04-02T03:07:34.074Z,93784.00
2023-04-02T03:08:34.072Z,93790.00
2023-04-02T03:09:34.089Z,93792.00
2023-04-02T03:10:34.068Z,93794.00
2023-04-02T03:11:34.156Z,93798.00
2023-04-02T03:12:34.212Z,93799.00
2023-04-02T03:13:34.192Z,93801.00
2023-04-02T03:14:34.200Z,93801.00
2023-04-02T03:15:34.421Z,93803.00
2023-04-02T03:16:34.217Z,93801.00
2023-04-02T03:17:34.257Z,93803.00
2023-04-02T03:18:34.227Z,93805.00
2023-04-02T03:19:34.227Z,93809.00
2023-04-02T03:20:34.248Z,93805.00
2023-04-02T03:21:34.258Z,93807.00
2023-04-02T03:22:34.258Z,93809.00
2023-04-02T03:23:34.311Z,93813.00
2023-04-02T03:24:34.278Z,93811.00
2023-04-02T03:25:34.537Z,93811.00
2023-04-02T03:26:34.318Z,93809.00
2023-04-02T03:27:34.293Z,93809.00
2023-04-02T03:28:34.312Z,93811.00
2023-04-02T03:29:34.331Z,93811.00
2023-04-02T03:30:34.336Z,93811.00
2023-04-02T03:31:34.469Z,93809.00
2023-04-02T03:32:34.472Z,93809.00
2023-04-02T03:33:34.463Z,93811.00
2023-04-02T03:34:34.482Z,93811.00
2023-04-02T03:35:34.749Z,93813.00
2023-04-02T03:36:34.492Z,93817.00
2023-04-02T03:37:34.495Z,93817.00
2023-04-02T03:38:34.495Z,93819.00
2023-04-02T03:39:34.516Z,93819.00
2023-04-02T03:40:34.533Z,93819.00
2023-04-02T03:41:34.546Z,93823.00
2023-04-02T03:42:34.555Z,93823.00
2023-04-02T03:43:34.588Z,93821.00
2023-04-02T03:44:34.583Z,93823.00
2023-04-02T03:45:34.775Z,93823.00
2023-04-02T03:46:34.715Z,93827.00
2023-04-02T03:47:34.708Z,93829.00
2023-04-02T03:48:34.699Z,93831.00
2023-04-02T03:49:34.688Z,93833.00
2023-04-02T03:50:34.694Z,93833.00
2023-04-02T03:51:34.735Z,93837.00
2023-04-02T03:52:34.801Z,93837.00
2023-04-02T03:53:34.899Z,93841.00
2023-04-02T03:54:34.912Z,93839.00
2023-04-02T03:55:35.030Z,93845.00
2023-04-02T03:56:34.936Z,93845.00
2023-04-02T03:57:34.948Z,93848.00
2023-04-02T03:58:35.044Z,93846.00
2023-04-02T03:59:35.053Z,93850.00
2023-04-02T04:00:35.013Z,93848.00
2023-04-02T04:01:35.057Z,93848.00
2023-04-02T04:02:35.085Z,93852.00
2023-04-02T04:03:35.040Z,93850.00
2023-04-02T04:04:35.121Z,93852.00
2023-04-02T04:05:35.255Z,93852.00
2023-04-02T04:06:35.125Z,93854.00
2023-04-02T04:07:35.231Z,93850.00
2023-04-02T04:08:35.233Z,93848.00
2023-04-02T04:09:35.240Z,93848.00
2023-04-02T04:10:35.244Z,93846.00
2023-04-02T04:11:35.256Z,93846.00
2023-04-02T04:12:35.267Z,93846.00
2023-04-02T04:13:35.270Z,93846.00
2023-04-02T04:14:35.292Z,93848.00
2023-04-02T04:15:35.409Z,93848.00
2023-04-02T04:16:35.338Z,93852.00
2023-04-02T04:17:35.360Z,93852.00
2023-04-02T04:18:35.423Z,93854.00
2023-04-02T04:19:35.430Z,93854.00
2023-04-02T04:20:35.449Z,93854.00
2023-04-02T04:21:35.454Z,93856.00
2023-04-02T04:22:35.474Z,93856.00
2023-04-02T04:23:35.461Z,93858.00
2023-04-02T04:24:35.554Z,93858.00
2023-04-02T04:25:35.728Z,93858.00
2023-04-02T04:26:35.567Z,93860.00
2023-04-02T04:27:35.592Z,93860.00
2023-04-02T04:28:35.600Z,93860.00
2023-04-02T04:29:35.615Z,93860.00
2023-04-02T04:30:35.619Z,93864.00
2023-04-02T04:31:35.657Z,93864.00
2023-04-02T04:32:35.635Z,93866.00
2023-04-02T04:33:35.646Z,93868.00
2023-04-02T04:34:35.670Z,93878.00
2023-04-02T04:35:35.893Z,93880.00
2023-04-02T04:36:35.811Z,93882.00
2023-04-02T04:37:35.876Z,93880.00
2023-04-02T04:38:35.876Z,93886.00
2023-04-02T04:39:35.899Z,93884.00
2023-04-02T04:40:35.899Z,93888.00
2023-04-02T04:41:35.899Z,93888.00
2023-04-02T04:42:35.960Z,93890.00
2023-04-02T04:43:35.987Z,93891.00
2023-04-02T04:44:35.975Z,93893.00
2023-04-02T04:45:36.217Z,93893.00
2023-04-02T04:46:36.012Z,93895.00
2023-04-02T04:47:36.083Z,93895.00
2023-04-02T04:48:36.488Z,93899.00
2023-04-02T04:49:36.151Z,93899.00
2023-04-02T04:50:36.104Z,93899.00
2023-04-02T04:51:36.111Z,93899.00
2023-04-02T04:52:36.123Z,93901.00
2023-04-02T04:53:36.181Z,93899.00
2023-04-02T04:54:36.176Z,93901.00
2023-04-02T04:55:36.407Z,93903.00
2023-04-02T04:56:36.268Z,93903.00
2023-04-02T04:57:36.252Z,93907.00
2023-04-02T04:58:36.269Z,93909.00
2023-04-02T04:59:36.282Z,93911.00
2023-04-02T05:00:36.294Z,93915.00
2023-04-02T05:01:36.355Z,93917.00
2023-04-02T05:02:36.398Z,93919.00
2023-04-02T05:03:36.416Z,93919.00
2023-04-02T05:04:36.460Z,93921.00
2023-04-02T05:05:36.624Z,93923.00
2023-04-02T05:06:36.437Z,93919.00
2023-04-02T05:07:36.447Z,93923.00
2023-04-02T05:08:36.487Z,93923.00
2023-04-02T05:09:36.466Z,93921.00
2023-04-02T05:10:36.490Z,93925.00
2023-04-02T05:11:36.497Z,93923.00
2023-04-02T05:12:36.573Z,93925.00
2023-04-02T05:13:36.576Z,93929.00
2023-04-02T05:14:36.586Z,93929.00
2023-04-02T05:15:36.758Z,93925.00
2023-04-02T05:16:36.671Z,93929.00
2023-04-02T05:17:36.674Z,93931.00
2023-04-02T05:18:36.635Z,93931.00
2023-04-02T05:19:36.648Z,93931.00
2023-04-02T05:20:36.676Z,93929.00
2023-04-02T05:21:36.657Z,93929.00
2023-04-02T05:22:37.491Z,93931.00
2023-04-02T05:23:36.696Z,93931.00
2023-04-02T05:24:36.700Z,93931.00
2023-04-02T05:25:36.864Z,93933.00
2023-04-02T05:26:36.722Z,93931.00
2023-04-02T05:27:36.759Z,93931.00
2023-04-02T05:28:36.776Z,93929.00
2023-04-02T05:29:36.800Z,93931.00
2023-04-02T05:30:36.800Z,93933.00
2023-04-02T05:31:36.864Z,93937.00
2023-04-02T05:32:36.898Z,93937.00
2023-04-02T05:33:36.888Z,93940.00
2023-04-02T05:34:36.891Z,93940.00
2023-04-02T05:35:37.118Z,93940.00
2023-04-02T05:36:36.895Z,93938.00
2023-04-02T05:37:36.920Z,93938.00
2023-04-02T05:38:36.953Z,93940.00
2023-04-02T05:39:36.937Z,93938.00
2023-04-02T05:40:37.008Z,93942.00
2023-04-02T05:41:37.031Z,93940.00
2023-04-02T05:42:37.088Z,93940.00
2023-04-02T05:43:37.120Z,93942.00
2023-04-02T05:45:37.358Z,93942.00
2023-04-02T05:46:37.145Z,93942.00
2023-04-02T05:47:37.185Z,93942.00
2023-04-02T05:48:37.153Z,93942.00
2023-04-02T05:49:37.163Z,93944.00
2023-04-02T05:50:37.244Z,93944.00
2023-04-02T05:51:37.198Z,93944.00
2023-04-02T05:52:37.192Z,93944.00
2023-04-02T05:53:37.220Z,93944.00
2023-04-02T05:54:37.216Z,93944.00
2023-04-02T05:55:37.306Z,93946.00
2023-04-02T05:56:37.234Z,93950.00
2023-04-02T05:57:44.460Z,93946.00
2023-04-02T05:58:38.276Z,93952.00
2023-04-02T05:59:37.208Z,93950.00
2023-04-02T06:00:37.234Z,93950.00
2023-04-02T06:01:37.214Z,93950.00
2023-04-02T06:02:37.325Z,93952.00
2023-04-02T06:03:37.256Z,93952.00
2023-04-02T06:04:37.179Z,93952.00
2023-04-02T06:05:37.422Z,93960.00
2023-04-02T06:06:37.180Z,93962.00
2023-04-02T06:07:37.170Z,93962.00
2023-04-02T06:08:37.174Z,93966.00
2023-04-02T06:09:37.163Z,93966.00
2023-04-02T06:10:37.173Z,93968.00
2023-04-02T06:11:37.145Z,93966.00
2023-04-02T06:12:37.150Z,93970.00
2023-04-02T06:13:37.265Z,93970.00
2023-04-02T06:14:37.347Z,93972.00
2023-04-02T06:15:37.487Z,93972.00
2023-04-02T06:16:37.350Z,93972.00
2023-04-02T06:17:37.402Z,93976.00
2023-04-02T06:18:37.349Z,93976.00
2023-04-02T06:19:37.428Z,93976.00
2023-04-02T06:20:37.430Z,93978.00
2023-04-02T06:21:37.453Z,93978.00
2023-04-02T06:22:37.476Z,93982.00
2023-04-02T06:23:37.504Z,93982.00
2023-04-02T06:24:37.580Z,93982.00
2023-04-02T06:25:37.903Z,93978.00
2023-04-02T06:26:37.620Z,93978.00
2023-04-02T06:27:37.658Z,93980.00
2023-04-02T06:28:37.740Z,93978.00
2023-04-02T06:29:37.767Z,93978.00
2023-04-02T06:30:37.898Z,93978.00
2023-04-02T06:31:37.915Z,93978.00
2023-04-02T06:32:37.994Z,93982.00
2023-04-02T06:33:38.025Z,93984.00
2023-04-02T06:34:38.092Z,93984.00
2023-04-02T06:35:38.363Z,93985.00
2023-04-02T06:36:38.170Z,93985.00
2023-04-02T06:37:38.248Z,93985.00
2023-04-02T06:38:38.262Z,93989.00
2023-04-02T06:39:38.324Z,93989.00
2023-04-02T06:40:38.343Z,93989.00
2023-04-02T06:41:38.392Z,93989.00
2023-04-02T06:42:38.444Z,93991.00
2023-04-02T06:43:38.455Z,93991.00
2023-04-02T06:44:38.502Z,93993.00
2023-04-02T06:45:38.571Z,93997.00
2023-04-02T06:46:38.607Z,93995.00
2023-04-02T06:47:38.668Z,93997.00
2023-04-02T06:48:38.661Z,93995.00
2023-04-02T06:49:38.720Z,93999.00
2023-04-02T06:50:38.743Z,94003.00
2023-04-02T06:51:38.780Z,94001.00
2023-04-02T06:52:38.814Z,94003.00
2023-04-02T06:53:38.844Z,94007.00
2023-04-02T06:54:38.874Z,94003.00
2023-04-02T06:55:39.163Z,94007.00
2023-04-02T06:56:38.913Z,94007.00
2023-04-02T06:57:38.897Z,94007.00
2023-04-02T06:58:38.906Z,94005.00
2023-04-02T06:59:38.926Z,94011.00
2023-04-02T07:00:38.916Z,94005.00
2023-04-02T07:01:38.977Z,94005.00
2023-04-02T07:02:38.978Z,94003.00
2023-04-02T07:03:38.937Z,94005.00
2023-04-02T07:04:39.040Z,94001.00
2023-04-02T07:05:41.025Z,94001.00
2023-04-02T07:06:38.951Z,94005.00
2023-04-02T07:07:38.943Z,94003.00
2023-04-02T07:08:38.952Z,94005.00
2023-04-02T07:09:38.948Z,94007.00
2023-04-02T07:10:38.967Z,94005.00
2023-04-02T07:11:38.923Z,94007.00
2023-04-02T07:12:38.905Z,94003.00
2023-04-02T07:13:38.913Z,94003.00
2023-04-02T07:14:38.889Z,94001.00
2023-04-02T07:15:38.933Z,94001.00
2023-04-02T07:16:38.898Z,94003.00
2023-04-02T07:17:38.888Z,94003.00
2023-04-02T07:18:38.880Z,94001.00
2023-04-02T07:19:38.879Z,93999.00
2023-04-02T07:20:38.865Z,93999.00
2023-04-02T07:21:38.861Z,94001.00
2023-04-02T07:22:38.854Z,94003.00
2023-04-02T07:23:38.858Z,93999.00
2023-04-02T07:24:38.835Z,93999.00
2023-04-02T07:25:38.817Z,93995.00
2023-04-02T07:26:38.830Z,93995.00
2023-04-02T07:27:38.812Z,93995.00
2023-04-02T07:28:38.816Z,93997.00
2023-04-02T07:29:38.798Z,93995.00
2023-04-02T07:30:38.809Z,93995.00
2023-04-02T07:31:38.836Z,93997.00
2023-04-02T07:32:38.831Z,93993.00
2023-04-02T07:33:39.759Z,93993.00
2023-04-02T07:34:38.764Z,93995.00
2023-04-02T07:35:38.871Z,93991.00
2023-04-02T07:36:38.858Z,93991.00
2023-04-02T07:37:38.932Z,93993.00
2023-04-02T07:38:38.961Z,93993.00
2023-04-02T07:39:40.234Z,93989.00
2023-04-02T07:40:39.064Z,93991.00
2023-04-02T07:41:39.092Z,93995.00
2023-04-02T07:42:39.159Z,93997.00
2023-04-02T07:43:39.215Z,93999.00
2023-04-02T07:44:39.250Z,94001.00
2023-04-02T07:45:39.278Z,93999.00
2023-04-02T07:46:39.368Z,94003.00
2023-04-02T07:47:39.438Z,94003.00
2023-04-02T07:48:39.411Z,94001.00
2023-04-02T07:49:39.444Z,94001.00
2023-04-02T07:50:39.473Z,94005.00
2023-04-02T07:51:39.508Z,94003.00
2023-04-02T07:52:40.528Z,94005.00
2023-04-02T07:53:39.533Z,94005.00
2023-04-02T07:54:39.570Z,94005.00
2023-04-02T07:55:39.564Z,94005.00
2023-04-02T07:56:39.594Z,94005.00
2023-04-02T07:57:39.615Z,94005.00
2023-04-02T07:58:39.630Z,94009.00
2023-04-02T07:59:39.621Z,94003.00
2023-04-02T08:00:39.640Z,94005.00
2023-04-02T08:01:39.665Z,94007.00
2023-04-02T08:02:39.671Z,94005.00
2023-04-02T08:03:39.719Z,94005.00
2023-04-02T08:04:39.656Z,94001.00
2023-04-02T08:05:39.659Z,94001.00
2023-04-02T08:06:39.680Z,94001.00
2023-04-02T08:07:39.679Z,93999.00
2023-04-02T08:08:39.695Z,93999.00
2023-04-02T08:09:39.713Z,93999.00
2023-04-02T08:10:39.689Z,94001.00
2023-04-02T08:11:39.712Z,93999.00
2023-04-02T08:12:39.722Z,94001.00
2023-04-02T08:13:39.744Z,94003.00
2023-04-02T08:14:39.721Z,94003.00
2023-04-02T08:15:39.728Z,94003.00
2023-04-02T08:16:39.790Z,94003.00
2023-04-02T08:17:39.795Z,94001.00
2023-04-02T08:18:39.764Z,94007.00
2023-04-02T08:19:53.800Z,94003.00
2023-04-02T08:20:40.735Z,94003.00
2023-04-02T08:21:39.743Z,94007.00
2023-04-02T08:22:39.743Z,94003.00
2023-04-02T08:23:39.732Z,94001.00
2023-04-02T08:24:39.727Z,94003.00
2023-04-02T08:25:39.725Z,94003.00
2023-04-02T08:26:39.714Z,94001.00
2023-04-02T08:27:39.704Z,94003.00
2023-04-02T08:28:39.687Z,94003.00
2023-04-02T08:29:39.672Z,94003.00
2023-04-02T08:30:39.724Z,93999.00
2023-04-02T08:31:39.744Z,93999.00
2023-04-02T08:32:39.794Z,94001.00
2023-04-02T08:33:39.871Z,94003.00
2023-04-02T08:34:39.905Z,93999.00
2023-04-02T08:35:40.310Z,94001.00
2023-04-02T08:36:40.040Z,94001.00
2023-04-02T08:37:40.070Z,93999.00
2023-04-02T08:38:40.144Z,94001.00
2023-04-02T08:39:40.194Z,93999.00
2023-04-02T08:40:40.252Z,93997.00
2023-04-02T08:41:40.329Z,93997.00
2023-04-02T08:42:40.353Z,93997.00
2023-04-02T08:43:40.410Z,93997.00
2023-04-02T08:45:26.040Z,93993.00
2023-04-02T08:46:26.071Z,93995.00
2023-04-02T08:47:26.091Z,93993.00
2023-04-02T08:48:26.027Z,93991.00
2023-04-02T08:49:26.007Z,93989.00
2023-04-02T08:50:26.018Z,93989.00
2023-04-02T08:51:25.997Z,93989.00
2023-04-02T08:52:25.998Z,93987.00
2023-04-02T08:53:25.985Z,93989.00
2023-04-02T08:54:26.023Z,93989.00
2023-04-02T08:55:26.045Z,93989.00
2023-04-02T08:56:25.966Z,93987.00
2023-04-02T08:57:26.011Z,93989.00
2023-04-02T08:58:25.960Z,93989.00
2023-04-02T08:59:25.958Z,93989.00
2023-04-02T09:00:25.940Z,93987.00
2023-04-02T09:01:25.985Z,93989.00
2023-04-02T09:02:25.991Z,93985.00
2023-04-02T09:03:25.934Z,93987.00
2023-04-02T09:04:26.004Z,93987.00
2023-04-02T09:05:25.895Z,93987.00
2023-04-02T09:06:25.908Z,93989.00
2023-04-02T09:07:25.900Z,93989.00
2023-04-02T09:08:25.901Z,93991.00
2023-04-02T09:09:25.880Z,93995.00
2023-04-02T09:10:25.872Z,93993.00
2023-04-02T09:11:25.884Z,93993.00
2023-04-02T09:12:25.871Z,93995.00
2023-04-02T09:13:25.912Z,93997.00
2023-04-02T09:14:25.872Z,93997.00
2023-04-02T09:15:25.848Z,93997.00
2023-04-02T09:16:25.880Z,93997.00
2023-04-02T09:17:25.818Z,93993.00
2023-04-02T09:18:25.901Z,93997.00
2023-04-02T09:19:25.857Z,93997.00
2023-04-02T09:20:25.807Z,93997.00
2023-04-02T09:21:25.806Z,93997.00
2023-04-02T09:22:25.805Z,93997.00
2023-04-02T09:23:25.873Z,93995.00
2023-04-02T09:24:25.775Z,93995.00
2023-04-02T09:25:25.780Z,93997.00
2023-04-02T09:26:25.784Z,93997.00
2023-04-02T09:27:25.782Z,93993.00
2023-04-02T09:28:25.832Z,93993.00
2023-04-02T09:29:25.866Z,93997.00
2023-04-02T09:30:25.912Z,93997.00
2023-04-02T09:31:25.972Z,93995.00
2023-04-02T09:32:26.103Z,93997.00
2023-04-02T09:33:26.160Z,93997.00
2023-04-02T09:34:26.153Z,93997.00
2023-04-02T09:35:27.030Z,93997.00
2023-04-02T09:36:26.255Z,94001.00
2023-04-02T09:37:26.307Z,93999.00
2023-04-02T09:38:26.365Z,94003.00
2023-04-02T09:39:26.410Z,94003.00
2023-04-02T09:40:26.472Z,94001.00
2023-04-02T09:41:26.545Z,94001.00
2023-04-02T09:42:26.591Z,94003.00
2023-04-02T09:43:26.625Z,94001.00
2023-04-02T09:44:26.711Z,94001.00
2023-04-02T09:45:26.756Z,94003.00
2023-04-02T09:46:26.861Z,93999.00
2023-04-02T09:47:26.947Z,93999.00
2023-04-02T09:48:26.915Z,93999.00
2023-04-02T09:49:26.975Z,93999.00
2023-04-02T09:50:27.022Z,93999.00
2023-04-02T09:51:27.093Z,93999.00
2023-04-02T09:52:27.134Z,93999.00
2023-04-02T09:53:27.175Z,93999.00
2023-04-02T09:54:27.246Z,94001.00
2023-04-02T09:55:27.313Z,93999.00
2023-04-02T09:56:27.364Z,93999.00
2023-04-02T09:57:27.531Z,93999.00
2023-04-02T09:58:27.487Z,94001.00
2023-04-02T09:59:27.552Z,94003.00
2023-04-02T10:01:27.650Z,93999.00
2023-04-02T10:02:27.596Z,94001.00
2023-04-02T10:03:27.581Z,94001.00
2023-04-02T10:04:27.605Z,94005.00
2023-04-02T10:05:39.953Z,94005.00
2023-04-02T10:06:28.537Z,94005.00
2023-04-02T10:07:27.547Z,94005.00
2023-04-02T10:08:27.528Z,94005.00
2023-04-02T10:09:27.538Z,94005.00
2023-04-02T10:10:27.530Z,94005.00
2023-04-02T10:11:36.549Z,94005.00
2023-04-02T10:12:28.500Z,94005.00
2023-04-02T10:13:27.555Z,94005.00
2023-04-02T10:14:27.498Z,94003.00
2023-04-02T10:15:27.488Z,94003.00
2023-04-02T10:16:27.592Z,94003.00
2023-04-02T10:17:27.521Z,94003.00
2023-04-02T10:18:27.453Z,94005.00
2023-04-02T10:19:27.513Z,94005.00
2023-04-02T10:20:27.438Z,94003.00
2023-04-02T10:21:27.457Z,94003.00
2023-04-02T10:22:27.446Z,94005.00
2023-04-02T10:23:27.418Z,94005.00
2023-04-02T10:24:27.427Z,94005.00
2023-04-02T10:25:27.428Z,94005.00
2023-04-02T10:26:27.422Z,94005.00
2023-04-02T10:27:27.399Z,94001.00
2023-04-02T10:28:27.392Z,94003.00
2023-04-02T10:29:27.418Z,94003.00
2023-04-02T10:30:27.469Z,94001.00
2023-04-02T10:31:27.498Z,94001.00
2023-04-02T10:32:27.532Z,93999.00
2023-04-02T10:33:27.528Z,94001.00
2023-04-02T10:34:27.581Z,93995.00
2023-04-02T10:35:27.674Z,93995.00
2023-04-02T10:36:27.692Z,93995.00
2023-04-02T10:37:27.718Z,93997.00
2023-04-02T10:38:27.793Z,93997.00
2023-04-02T10:39:27.838Z,93995.00
2023-04-02T10:40:27.890Z,93995.00
2023-04-02T10:41:27.943Z,93993.00
2023-04-02T10:42:28.007Z,93995.00
2023-04-02T10:43:28.056Z,93997.00
2023-04-02T10:44:28.177Z,93993.00
2023-04-02T10:45:28.185Z,93993.00
2023-04-02T10:46:28.282Z,93997.00
2023-04-02T10:47:28.331Z,93997.00
2023-04-02T10:48:28.330Z,93997.00
2023-04-02T10:49:28.379Z,93999.00
2023-04-02T10:50:28.451Z,93999.00
2023-04-02T10:51:28.496Z,94003.00
2023-04-02T10:52:28.551Z,94001.00
2023-04-02T10:53:28.633Z,94005.00
2023-04-02T10:54:28.676Z,94003.00
2023-04-02T10:55:28.745Z,94005.00
2023-04-02T10:56:35.198Z,94007.00
2023-04-02T10:57:29.797Z,94009.00
2023-04-02T10:58:28.778Z,94011.00
2023-04-02T10:59:28.787Z,94011.00
2023-04-02T11:00:28.763Z,94011.00
2023-04-02T11:01:28.790Z,94013.00
2023-04-02T11:02:28.958Z,94015.00
2023-04-02T11:03:28.893Z,94017.00
2023-04-02T11:04:28.752Z,94017.00
2023-04-02T11:05:28.733Z,94017.00
2023-04-02T11:06:28.762Z,94019.00
2023-04-02T11:07:28.802Z,94017.00
2023-04-02T11:08:28.843Z,94019.00
2023-04-02T11:09:28.877Z,94019.00
2023-04-02T11:10:28.900Z,94017.00
2023-04-02T11:11:28.908Z,94015.00
2023-04-02T11:12:28.901Z,94011.00
2023-04-02T11:13:28.932Z,94013.00
2023-04-02T11:14:28.951Z,94017.00
2023-04-02T11:15:28.934Z,94013.00
2023-04-02T11:16:29.031Z,94013.00
2023-04-02T11:17:28.951Z,94013.00
2023-04-02T11:18:28.923Z,94013.00
2023-04-02T11:19:28.917Z,94019.00
2023-04-02T11:20:28.931Z,94019.00
2023-04-02T11:21:28.943Z,94021.00
2023-04-02T11:22:28.931Z,94021.00
2023-04-02T11:23:28.938Z,94023.00
2023-04-02T11:24:28.921Z,94023.00
2023-04-02T11:25:28.934Z,94027.00
2023-04-02T11:26:28.928Z,94025.00
2023-04-02T11:27:28.953Z,94025.00
2023-04-02T11:28:28.947Z,94025.00
2023-04-02T11:29:28.941Z,94027.00
2023-04-02T11:30:28.944Z,94025.00
2023-04-02T11:31:28.950Z,94027.00
2023-04-02T11:32:29.000Z,94029.00
2023-04-02T11:33:36.613Z,94036.00
2023-04-02T11:34:29.960Z,94036.00
2023-04-02T11:35:28.961Z,94038.00
2023-04-02T11:36:28.932Z,94042.00
2023-04-02T11:37:28.934Z,94044.00
2023-04-02T11:38:28.935Z,94048.00
2023-04-02T11:39:28.911Z,94050.00
2023-04-02T11:40:28.903Z,94046.00
2023-04-02T11:41:28.902Z,94048.00
2023-04-02T11:42:28.877Z,94050.00
2023-04-02T11:43:28.872Z,94050.00
2023-04-02T11:44:28.869Z,94056.00
2023-04-02T11:45:28.868Z,94058.00
2023-04-02T11:46:28.918Z,94058.00
2023-04-02T11:47:28.896Z,94058.00